Аэропорт: Атырау. Атырау

ICAO: UATG

METAR:
2018/11/21 18:30
UATG 211830Z 27003MPS 9999 BKN036 00/M06 Q1014 R32/CLRD70 NOSIG RMK QFE762/1016
METAR:
2018/11/21 18:18
TAF UATG 211704Z 2118/2218 28007MPS 3000 BR BKN010 BKN030CB TX02/2210Z TNM03/2203Z 
      TEMPO 2120/2202 0300 FZFG VV001 
      BECMG 2202/2204 3000 -SHSN BR BKN010 BKN020CB